Time;durP1;ratioP1;P1;durP2;ratioP2;P2;SDS_P1;SDS_P2;PMS_P1;PMS_P2;Temp;Humidity;BMP_temperature;BMP_pressure;BME280_temperature;BME280_humidity;BME280_pressure;Samples;Min_cycle;Max_cycle;Signal;HPM_P1;HPM_P2
2022/12/23 00:02:20;;;;;;;20.98;6.40;;;10.80;93.00;;;;;;5008271;28;20490;-76
2022/12/23 00:04:46;;;;;;;19.50;7.38;;;10.80;93.00;;;;;;5000004;28;20091;-75
2022/12/23 00:07:12;;;;;;;17.77;6.82;;;10.80;93.00;;;;;;4994754;28;20534;-76
2022/12/23 00:09:37;;;;;;;15.52;6.30;;;10.80;93.00;;;;;;4999487;28;20034;-75
2022/12/23 00:15:05;;;;;;;18.47;6.17;;;10.80;93.00;;;;;;5004397;28;20044;-76
2022/12/23 00:17:41;;;;;;;18.33;6.32;;;10.80;93.10;;;;;;5000618;28;20304;-75
2022/12/23 00:20:09;;;;;;;17.73;6.65;;;10.80;93.00;;;;;;4998121;28;20122;-76
2022/12/23 00:25:19;;;;;;;23.30;7.70;;;10.80;93.00;;;;;;4997358;28;20117;-76
2022/12/23 00:28:00;;;;;;;24.30;8.50;;;10.80;93.00;;;;;;4997588;28;20459;-76
2022/12/23 00:30:27;;;;;;;21.27;7.18;;;10.80;93.10;;;;;;4998599;28;20040;-76
2022/12/23 00:32:52;;;;;;;25.38;8.20;;;10.80;93.10;;;;;;5000335;28;20081;-76
2022/12/23 00:35:18;;;;;;;23.20;8.10;;;10.80;93.20;;;;;;4998637;28;20041;-76
2022/12/23 00:37:44;;;;;;;22.95;7.13;;;10.80;93.30;;;;;;5000444;28;20042;-76
2022/12/23 00:42:59;;;;;;;19.23;6.18;;;10.80;93.20;;;;;;5000033;28;20048;-76
2022/12/23 00:45:25;;;;;;;22.23;6.60;;;10.80;93.10;;;;;;4991034;28;20411;-76
2022/12/23 00:50:37;;;;;;;24.90;7.00;;;10.80;92.90;;;;;;4999637;28;20410;-76
2022/12/23 00:53:03;;;;;;;22.67;6.57;;;10.80;92.90;;;;;;5002415;28;20121;-76
2022/12/23 00:55:29;;;;;;;21.50;6.30;;;10.80;93.00;;;;;;4994272;28;20470;-76
2022/12/23 00:57:55;;;;;;;18.55;5.70;;;10.80;92.90;;;;;;4988760;28;20107;-76
2022/12/23 01:05:35;;;;;;;19.20;6.30;;;10.80;92.90;;;;;;4998487;28;20470;-76
2022/12/23 01:06:09;;;;;;;15.90;5.70;;;10.70;92.80;;;;;;5013496;28;20479;-75
2022/12/23 01:08:35;;;;;;;18.80;6.25;;;10.80;92.90;;;;;;4998351;28;20088;-75
2022/12/23 01:11:03;;;;;;;20.83;6.07;;;10.70;92.70;;;;;;4997726;28;20034;-75
2022/12/23 01:13:29;;;;;;;20.15;6.25;;;10.70;92.80;;;;;;4999855;28;20045;-75
2022/12/23 01:16:03;;;;;;;17.63;5.28;;;10.80;92.80;;;;;;4999995;28;20049;-75
2022/12/23 01:18:29;;;;;;;18.48;5.80;;;10.80;92.80;;;;;;4999987;28;20109;-75
2022/12/23 01:20:55;;;;;;;20.83;6.38;;;10.70;92.80;;;;;;5003250;28;20458;-75
2022/12/23 01:23:20;;;;;;;19.10;6.18;;;10.70;92.90;;;;;;5000148;28;20546;-75
2022/12/23 01:25:47;;;;;;;25.08;6.80;;;10.70;92.90;;;;;;5001075;28;20034;-76
2022/12/23 01:28:12;;;;;;;18.13;5.63;;;10.70;92.90;;;;;;5000493;28;20042;-75
2022/12/23 01:30:38;;;;;;;15.13;5.30;;;10.80;93.00;;;;;;5002937;28;20044;-76
2022/12/23 01:33:04;;;;;;;17.17;5.40;;;10.80;93.00;;;;;;4998304;28;20117;-75
2022/12/23 01:35:30;;;;;;;20.70;5.63;;;10.80;93.20;;;;;;4997690;28;20469;-75
2022/12/23 01:37:55;;;;;;;20.75;5.28;;;10.80;93.10;;;;;;5000429;28;20050;-75
2022/12/23 01:40:21;;;;;;;21.27;5.85;;;10.80;93.30;;;;;;4993816;28;20038;-75
2022/12/23 01:42:47;;;;;;;17.20;6.05;;;10.80;93.40;;;;;;5000927;28;20034;-75
2022/12/23 01:45:14;;;;;;;19.75;6.53;;;10.70;93.50;;;;;;4994960;28;20753;-76
2022/12/23 01:47:40;;;;;;;18.05;6.38;;;10.70;93.70;;;;;;4999977;28;20038;-75
2022/12/23 01:50:06;;;;;;;21.20;5.65;;;10.70;93.70;;;;;;4998912;28;20034;-76
2022/12/23 01:52:36;;;;;;;23.42;7.25;;;10.70;93.70;;;;;;5003603;28;20041;-76
2022/12/23 01:55:02;;;;;;;16.48;6.15;;;10.60;93.80;;;;;;4996215;28;20030;-75
2022/12/23 01:57:29;;;;;;;21.20;6.90;;;10.60;94.00;;;;;;4996387;28;20068;-75
2022/12/23 02:05:25;;;;;;;19.98;6.93;;;10.70;93.90;;;;;;4993779;28;20280;-75
2022/12/23 02:10:59;;;;;;;19.63;7.95;;;10.60;93.90;;;;;;4998945;28;20061;-75
2022/12/23 02:16:43;;;;;;;24.55;6.93;;;10.60;94.00;;;;;;5001890;28;20435;-75
2022/12/23 02:19:41;;;;;;;19.70;6.78;;;10.60;93.90;;;;;;4997523;28;20113;-75
2022/12/23 02:22:49;;;;;;;20.42;6.80;;;10.60;93.80;;;;;;4997508;28;20037;-75
2022/12/23 02:25:29;;;;;;;21.50;6.38;;;10.60;93.90;;;;;;5006963;28;20072;-76
2022/12/23 02:28:18;;;;;;;20.27;6.00;;;10.60;93.90;;;;;;4995733;28;20033;-75
2022/12/23 02:31:09;;;;;;;19.83;6.07;;;10.60;93.80;;;;;;4997544;28;20045;-75
2022/12/23 02:33:55;;;;;;;22.02;6.20;;;10.60;93.80;;;;;;5008764;28;20044;-76
2022/12/23 02:36:37;;;;;;;17.77;6.15;;;10.60;93.80;;;;;;5001357;28;20485;-76
2022/12/23 02:39:32;;;;;;;19.33;6.10;;;10.60;93.70;;;;;;4999883;28;20601;-76
2022/12/23 02:42:20;;;;;;;16.42;5.63;;;10.60;93.60;;;;;;4997575;28;20042;-77
2022/12/23 02:45:00;;;;;;;14.88;5.35;;;10.60;93.50;;;;;;4999368;28;20046;-76
2022/12/23 02:47:39;;;;;;;15.88;6.10;;;10.60;93.40;;;;;;4993463;28;20593;-76
2022/12/23 02:50:18;;;;;;;21.63;6.00;;;10.60;93.30;;;;;;4993933;28;20033;-75
2022/12/23 02:52:46;;;;;;;17.92;5.97;;;10.60;93.30;;;;;;4999363;28;20521;-75
2022/12/23 02:55:20;;;;;;;18.60;5.65;;;10.60;93.30;;;;;;5004167;28;20108;-75
2022/12/23 02:57:49;;;;;;;17.70;5.50;;;10.60;93.20;;;;;;5001120;28;20050;-75
2022/12/23 03:00:16;;;;;;;17.55;5.32;;;10.60;93.30;;;;;;5003983;28;20113;-74
2022/12/23 03:02:43;;;;;;;14.57;5.03;;;10.60;93.30;;;;;;4998445;28;20026;-74
2022/12/23 03:05:33;;;;;;;18.85;4.70;;;10.60;93.10;;;;;;4997933;28;20500;-75
2022/12/23 03:08:02;;;;;;;16.27;4.97;;;10.60;93.20;;;;;;4997035;28;20038;-74
2022/12/23 03:10:53;;;;;;;20.27;5.10;;;10.60;93.20;;;;;;4998138;28;20033;-75
2022/12/23 03:13:25;;;;;;;14.63;5.68;;;10.60;93.10;;;;;;4997696;28;20038;-75
2022/12/23 03:16:06;;;;;;;20.38;6.20;;;10.60;93.20;;;;;;4995051;28;20042;-75
2022/12/23 03:19:10;;;;;;;20.17;5.85;;;10.60;93.10;;;;;;4996753;28;20380;-75
2022/12/23 03:21:48;;;;;;;20.75;5.95;;;10.50;93.20;;;;;;4998496;28;20546;-75
2022/12/23 03:24:23;;;;;;;18.75;5.72;;;10.60;93.20;;;;;;4997516;28;20483;-75
2022/12/23 03:27:28;;;;;;;16.77;5.47;;;10.60;93.10;;;;;;4994759;28;20553;-75
2022/12/23 03:30:09;;;;;;;20.25;5.85;;;10.60;93.20;;;;;;4958131;28;20039;-76
2022/12/23 03:32:42;;;;;;;16.80;6.35;;;10.50;93.20;;;;;;4990422;28;20046;-75
2022/12/23 03:35:11;;;;;;;20.07;6.10;;;10.60;93.30;;;;;;4999333;28;20053;-76
2022/12/23 03:37:40;;;;;;;18.92;5.57;;;10.60;93.30;;;;;;5003673;28;20053;-75
2022/12/23 03:40:23;;;;;;;19.98;5.95;;;10.60;93.40;;;;;;5000583;28;20037;-75
2022/12/23 03:43:04;;;;;;;20.98;7.13;;;10.60;93.40;;;;;;4996799;28;20054;-75
2022/12/23 03:45:35;;;;;;;21.70;6.07;;;10.60;93.50;;;;;;5000289;28;20195;-75
2022/12/23 03:48:35;;;;;;;18.00;6.95;;;10.50;93.50;;;;;;4993921;28;20543;-76
2022/12/23 03:51:08;;;;;;;21.15;7.20;;;10.60;93.50;;;;;;4989555;28;20058;-75
2022/12/23 03:53:55;;;;;;;20.20;6.72;;;10.50;93.60;;;;;;5001105;28;20038;-75
2022/12/23 03:56:37;;;;;;;22.40;6.30;;;10.60;93.60;;;;;;4997340;28;20050;-75
2022/12/23 03:59:14;;;;;;;27.42;7.15;;;10.50;93.70;;;;;;4997909;28;20192;-74
2022/12/23 04:01:42;;;;;;;20.30;7.07;;;10.50;93.70;;;;;;5000360;28;20042;-75
2022/12/23 04:04:23;;;;;;;19.83;6.57;;;10.50;93.80;;;;;;4992361;28;20052;-75
2022/12/23 04:07:03;;;;;;;20.88;7.32;;;10.50;93.80;;;;;;4997001;28;20062;-75
2022/12/23 04:09:29;;;;;;;15.82;6.07;;;10.50;93.80;;;;;;5004354;28;20034;-75
2022/12/23 04:11:57;;;;;;;16.23;6.25;;;10.50;93.90;;;;;;5002126;28;20037;-75
2022/12/23 04:14:22;;;;;;;25.88;6.97;;;10.50;93.90;;;;;;5000461;28;20245;-76
2022/12/23 04:16:52;;;;;;;17.52;6.57;;;10.50;93.90;;;;;;5000916;28;20477;-76
2022/12/23 04:19:18;;;;;;;21.70;7.60;;;10.50;93.80;;;;;;5000133;28;20060;-75
2022/12/23 04:21:43;;;;;;;20.27;6.65;;;10.50;93.80;;;;;;5000662;28;20037;-75
2022/12/23 04:24:09;;;;;;;28.92;9.02;;;10.40;93.80;;;;;;4999180;28;20045;-76
2022/12/23 04:26:35;;;;;;;19.88;6.82;;;10.50;93.80;;;;;;5002347;28;20060;-76
2022/12/23 04:29:00;;;;;;;19.67;7.50;;;10.50;93.80;;;;;;4999734;28;20859;-75
2022/12/23 04:31:26;;;;;;;19.30;7.32;;;10.40;93.80;;;;;;5002063;28;20100;-76
2022/12/23 04:33:51;;;;;;;18.00;7.35;;;10.40;93.80;;;;;;4999444;28;20043;-76
2022/12/23 04:36:17;;;;;;;19.73;6.85;;;10.40;93.80;;;;;;5001850;28;20109;-76
2022/12/23 04:38:43;;;;;;;19.92;7.80;;;10.40;93.80;;;;;;5004119;28;20184;-76
2022/12/23 04:41:08;;;;;;;15.65;6.85;;;10.40;93.80;;;;;;5003723;28;20461;-76
2022/12/23 04:43:36;;;;;;;14.68;7.00;;;10.40;93.70;;;;;;5002130;28;20290;-77
2022/12/23 04:46:02;;;;;;;18.60;6.85;;;10.40;93.70;;;;;;4998856;28;20326;-76
2022/12/23 04:48:28;;;;;;;16.73;6.65;;;10.40;93.70;;;;;;4999377;28;20034;-76
2022/12/23 04:50:53;;;;;;;17.38;7.00;;;10.40;93.70;;;;;;5000234;28;20447;-76
2022/12/23 04:53:19;;;;;;;22.15;7.07;;;10.40;93.80;;;;;;5007998;28;20030;-76
2022/12/23 04:55:49;;;;;;;17.05;7.25;;;10.30;93.80;;;;;;5001060;28;20638;-76
2022/12/23 04:58:15;;;;;;;15.18;7.43;;;10.40;93.80;;;;;;5002363;28;20253;-77
2022/12/23 05:00:41;;;;;;;21.23;7.57;;;10.40;93.80;;;;;;5001116;28;20497;-75
2022/12/23 05:03:07;;;;;;;16.02;7.38;;;10.40;93.80;;;;;;5002459;28;20131;-77
2022/12/23 05:05:32;;;;;;;13.43;6.57;;;10.40;93.80;;;;;;5002293;28;20037;-76
2022/12/23 05:08:03;;;;;;;18.80;7.15;;;10.40;93.80;;;;;;5005434;28;20335;-76
2022/12/23 05:10:28;;;;;;;15.27;6.00;;;10.40;93.70;;;;;;4998362;28;20037;-76
2022/12/23 05:12:54;;;;;;;14.45;6.78;;;10.40;93.70;;;;;;5003501;28;20046;-76
2022/12/23 05:15:20;;;;;;;17.67;7.00;;;10.30;93.70;;;;;;4997961;28;20368;-76
2022/12/23 05:17:45;;;;;;;15.13;6.82;;;10.40;93.70;;;;;;4997494;28;20051;-76
2022/12/23 05:20:11;;;;;;;14.43;6.90;;;10.30;93.60;;;;;;5000781;28;20053;-76
2022/12/23 05:22:36;;;;;;;16.02;7.00;;;10.40;93.60;;;;;;4996858;28;20463;-76
2022/12/23 05:25:02;;;;;;;15.93;6.80;;;10.40;93.50;;;;;;4999860;28;20037;-76
2022/12/23 05:27:28;;;;;;;18.73;7.93;;;10.30;93.50;;;;;;5001796;28;20116;-76
2022/12/23 05:29:54;;;;;;;17.90;7.25;;;10.30;93.50;;;;;;5006058;28;20096;-76
2022/12/23 05:32:19;;;;;;;16.38;6.78;;;10.30;93.40;;;;;;5001001;28;20447;-75
2022/12/23 05:34:45;;;;;;;14.40;6.32;;;10.30;93.40;;;;;;5001600;28;20382;-76
2022/12/23 05:37:10;;;;;;;14.00;6.63;;;10.30;93.40;;;;;;4997923;28;20527;-76
2022/12/23 05:39:36;;;;;;;16.90;6.28;;;10.30;93.40;;;;;;4994794;28;20022;-76
2022/12/23 05:42:02;;;;;;;17.15;6.22;;;10.30;93.40;;;;;;5002244;28;20603;-76
2022/12/23 05:44:27;;;;;;;13.80;6.35;;;10.30;93.40;;;;;;4997376;28;20091;-76
2022/12/23 05:46:53;;;;;;;15.80;6.60;;;10.20;93.50;;;;;;4995421;28;20038;-76
2022/12/23 05:49:19;;;;;;;12.70;5.32;;;10.20;93.50;;;;;;4987785;28;20470;-76
2022/12/23 05:51:44;;;;;;;14.90;6.05;;;10.20;93.60;;;;;;4989092;28;20096;-76
2022/12/23 05:54:10;;;;;;;16.10;5.90;;;10.30;93.60;;;;;;4999775;28;20026;-76
2022/12/23 05:56:35;;;;;;;14.45;5.80;;;10.20;93.50;;;;;;4999884;28;20064;-76
2022/12/23 05:59:01;;;;;;;13.32;5.47;;;10.30;93.60;;;;;;4997621;28;20042;-76
2022/12/23 06:01:27;;;;;;;13.82;5.53;;;10.30;93.50;;;;;;4998060;28;20471;-77
2022/12/23 06:03:53;;;;;;;13.35;5.00;;;10.20;93.50;;;;;;4999666;28;20058;-76
2022/12/23 06:06:18;;;;;;;12.32;4.72;;;10.30;93.50;;;;;;5000528;28;20113;-76
2022/12/23 06:08:44;;;;;;;14.05;5.72;;;10.20;93.50;;;;;;4995922;28;20034;-76
2022/12/23 06:11:11;;;;;;;12.57;4.95;;;10.30;93.50;;;;;;5011866;28;20518;-76
2022/12/23 06:13:37;;;;;;;14.05;5.55;;;10.30;93.50;;;;;;4997128;28;20397;-77
2022/12/23 06:16:03;;;;;;;12.60;5.30;;;10.20;93.50;;;;;;4995452;28;20044;-76
2022/12/23 06:18:28;;;;;;;15.77;5.60;;;10.20;93.50;;;;;;4996049;28;20045;-76
2022/12/23 06:20:54;;;;;;;13.77;5.07;;;10.20;93.50;;;;;;4999602;28;20039;-76
2022/12/23 06:23:20;;;;;;;16.02;4.93;;;10.20;93.50;;;;;;5002288;28;20045;-76
2022/12/23 06:25:45;;;;;;;11.68;4.80;;;10.20;93.60;;;;;;4996335;28;20433;-76
2022/12/23 06:28:11;;;;;;;10.50;4.68;;;10.20;93.60;;;;;;5004483;28;20040;-76
2022/12/23 06:30:37;;;;;;;17.35;4.85;;;10.20;93.60;;;;;;4996384;28;20573;-76
2022/12/23 06:33:02;;;;;;;17.65;5.35;;;10.20;93.60;;;;;;4997328;28;20092;-76
2022/12/23 06:35:28;;;;;;;16.25;5.78;;;10.20;93.50;;;;;;4997947;28;20086;-76
2022/12/23 06:37:54;;;;;;;15.50;5.25;;;10.20;93.50;;;;;;4995098;28;20078;-77
2022/12/23 06:40:19;;;;;;;17.95;5.20;;;10.20;93.60;;;;;;4994767;28;20489;-76
2022/12/23 06:42:46;;;;;;;17.08;6.18;;;10.10;93.60;;;;;;4991542;28;20191;-76
2022/12/23 06:45:12;;;;;;;16.10;5.43;;;10.10;93.70;;;;;;4997494;28;20121;-76
2022/12/23 06:47:38;;;;;;;17.55;6.55;;;10.10;93.60;;;;;;4992126;28;20038;-76
2022/12/23 06:50:04;;;;;;;15.65;5.63;;;10.10;93.70;;;;;;4998029;28;20041;-76
2022/12/23 06:52:29;;;;;;;16.92;6.22;;;10.10;93.70;;;;;;4988421;28;20160;-74
2022/12/23 06:54:55;;;;;;;15.20;6.45;;;10.10;93.70;;;;;;4997294;28;20513;-75
2022/12/23 06:57:21;;;;;;;20.05;6.18;;;10.20;93.80;;;;;;4995828;28;20046;-75
2022/12/23 06:59:46;;;;;;;15.25;7.72;;;10.10;93.80;;;;;;5000841;28;20045;-75
2022/12/23 07:02:12;;;;;;;17.25;7.50;;;10.10;93.80;;;;;;4991595;28;20124;-75
2022/12/23 07:04:38;;;;;;;18.23;7.28;;;10.10;93.70;;;;;;4991531;28;20034;-76
2022/12/23 07:07:04;;;;;;;18.50;7.20;;;10.10;93.80;;;;;;4999721;28;20068;-75
2022/12/23 07:09:29;;;;;;;20.75;8.23;;;10.10;93.80;;;;;;4999600;28;20052;-75
2022/12/23 07:11:55;;;;;;;24.23;8.55;;;10.10;93.90;;;;;;5002511;28;20030;-75
2022/12/23 07:14:20;;;;;;;20.08;8.40;;;10.10;93.90;;;;;;5007812;28;20038;-76
2022/12/23 07:16:47;;;;;;;21.95;8.18;;;10.10;94.00;;;;;;4997888;28;20044;-75
2022/12/23 07:19:12;;;;;;;21.50;7.45;;;10.10;94.10;;;;;;4992819;28;20030;-75
2022/12/23 07:21:38;;;;;;;22.00;7.55;;;10.10;94.10;;;;;;4990559;28;20056;-75
2022/12/23 07:24:04;;;;;;;19.73;7.38;;;10.10;94.10;;;;;;4993707;28;20064;-76
2022/12/23 07:26:30;;;;;;;20.60;7.07;;;10.10;94.10;;;;;;4997088;28;20054;-76
2022/12/23 07:28:56;;;;;;;21.13;8.00;;;10.10;94.10;;;;;;4994908;28;20078;-74
2022/12/23 07:31:21;;;;;;;21.60;7.80;;;10.10;94.10;;;;;;4999340;28;20069;-74
2022/12/23 07:33:49;;;;;;;21.65;7.82;;;10.10;94.10;;;;;;4999339;28;20245;-74
2022/12/23 07:36:14;;;;;;;22.38;8.63;;;10.10;94.20;;;;;;4995693;28;20033;-74
2022/12/23 07:38:40;;;;;;;21.45;9.10;;;10.10;94.20;;;;;;4998797;28;20049;-74
2022/12/23 07:41:07;;;;;;;20.33;8.77;;;10.10;94.20;;;;;;4991180;28;20375;-74
2022/12/23 07:43:33;;;;;;;22.75;8.65;;;10.10;94.20;;;;;;4990977;28;20026;-76
2022/12/23 07:46:05;;;;;;;20.17;7.05;;;10.10;94.20;;;;;;4992004;28;20471;-74
2022/12/23 07:48:31;;;;;;;18.27;6.82;;;10.10;94.20;;;;;;4999420;28;20037;-74
2022/12/23 07:51:01;;;;;;;20.67;7.40;;;10.10;94.20;;;;;;4998407;28;20057;-75
2022/12/23 07:53:28;;;;;;;19.33;7.07;;;10.10;94.10;;;;;;4999965;28;20042;-75
2022/12/23 07:55:54;;;;;;;17.77;7.32;;;10.10;94.10;;;;;;4999004;28;20049;-74
2022/12/23 07:58:20;;;;;;;18.23;7.75;;;10.10;94.10;;;;;;5002322;28;20042;-74
2022/12/23 08:00:47;;;;;;;18.67;7.55;;;10.10;94.10;;;;;;4999713;28;20042;-74
2022/12/23 08:03:12;;;;;;;22.58;8.02;;;10.10;94.20;;;;;;5000137;28;20030;-74
2022/12/23 08:05:38;;;;;;;17.88;7.80;;;10.10;94.20;;;;;;5002695;28;20081;-74
2022/12/23 08:08:04;;;;;;;19.67;6.88;;;10.10;94.20;;;;;;5008140;28;20045;-74
2022/12/23 08:10:30;;;;;;;17.38;7.30;;;10.10;94.20;;;;;;5000703;28;20083;-75
2022/12/23 08:12:59;;;;;;;23.02;7.78;;;10.10;94.20;;;;;;5001117;28;20537;-76
2022/12/23 08:15:25;;;;;;;16.15;7.47;;;10.10;94.10;;;;;;5001623;28;20084;-75
2022/12/23 08:17:50;;;;;;;18.60;7.05;;;10.10;94.20;;;;;;5002573;28;20148;-74
2022/12/23 08:20:17;;;;;;;20.38;7.45;;;10.10;94.20;;;;;;5003472;28;20069;-75
2022/12/23 08:22:43;;;;;;;21.58;7.35;;;10.10;94.20;;;;;;5004845;28;20033;-74
2022/12/23 08:25:10;;;;;;;19.98;8.13;;;10.10;94.20;;;;;;5000915;28;20042;-75
2022/12/23 08:27:36;;;;;;;15.77;6.80;;;10.10;94.30;;;;;;4993816;28;20041;-75
2022/12/23 08:30:02;;;;;;;16.65;7.03;;;10.10;94.40;;;;;;4995939;28;20096;-75
2022/12/23 08:32:28;;;;;;;20.65;7.55;;;10.10;94.40;;;;;;4997251;28;20117;-75
2022/12/23 08:34:57;;;;;;;15.98;6.85;;;10.10;94.50;;;;;;5006097;28;20148;-76
2022/12/23 08:37:23;;;;;;;22.13;8.13;;;10.10;94.50;;;;;;4996748;28;20081;-76
2022/12/23 08:39:49;;;;;;;16.63;7.57;;;10.10;94.50;;;;;;5002698;28;20113;-76
2022/12/23 08:42:15;;;;;;;18.63;8.93;;;10.10;94.60;;;;;;4995253;28;20387;-75
2022/12/23 08:44:40;;;;;;;23.52;8.77;;;10.10;94.50;;;;;;4999926;28;20049;-75
2022/12/23 08:47:07;;;;;;;21.25;8.70;;;10.10;94.50;;;;;;5002271;28;20038;-75
2022/12/23 08:49:33;;;;;;;19.13;8.95;;;10.10;94.60;;;;;;5004534;28;20062;-75
2022/12/23 08:51:58;;;;;;;15.70;9.13;;;10.10;94.60;;;;;;5001500;28;20129;-75
2022/12/23 08:54:24;;;;;;;17.52;8.80;;;10.10;94.60;;;;;;4998332;28;20125;-75
2022/12/23 08:56:51;;;;;;;16.60;9.15;;;10.10;94.70;;;;;;5000746;28;20049;-76
2022/12/23 08:59:17;;;;;;;17.83;9.10;;;10.10;94.70;;;;;;4996662;28;20143;-76
2022/12/23 09:01:42;;;;;;;13.10;8.38;;;10.10;94.80;;;;;;4993786;28;20034;-76
2022/12/23 09:04:09;;;;;;;18.08;8.88;;;10.10;94.80;;;;;;4999210;28;20378;-75
2022/12/23 09:06:39;;;;;;;17.88;9.27;;;10.10;94.80;;;;;;4990872;28;20422;-75
2022/12/23 09:09:06;;;;;;;17.15;11.20;;;10.10;94.80;;;;;;4994524;28;20438;-75
2022/12/23 09:11:33;;;;;;;18.02;9.68;;;10.10;94.80;;;;;;4990785;28;20030;-75
2022/12/23 09:13:59;;;;;;;19.92;12.07;;;10.10;94.90;;;;;;4992288;28;20041;-76
2022/12/23 09:16:26;;;;;;;20.48;12.30;;;10.10;94.90;;;;;;4992730;28;20497;-75
2022/12/23 09:18:51;;;;;;;24.60;14.68;;;10.10;94.90;;;;;;4998125;28;20145;-75
2022/12/23 09:21:20;;;;;;;25.33;16.05;;;10.10;94.90;;;;;;4999724;28;20546;-75
2022/12/23 09:23:46;;;;;;;28.95;16.98;;;10.10;94.90;;;;;;4998944;28;20044;-75
2022/12/23 09:26:21;;;;;;;33.45;19.55;;;10.10;94.90;;;;;;4992722;28;20026;-75
2022/12/23 09:28:47;;;;;;;33.28;21.40;;;10.10;95.00;;;;;;5000713;28;20521;-76
2022/12/23 09:31:13;;;;;;;36.92;22.70;;;10.10;94.90;;;;;;4999483;28;20057;-75
2022/12/23 09:33:39;;;;;;;34.33;22.20;;;10.10;94.90;;;;;;4999834;28;20030;-75
2022/12/23 09:36:05;;;;;;;34.70;23.77;;;10.10;94.90;;;;;;5001528;28;20355;-75
2022/12/23 09:38:32;;;;;;;38.25;23.52;;;10.10;94.90;;;;;;5001786;28;20056;-76
2022/12/23 09:41:16;;;;;;;39.67;23.33;;;10.20;94.90;;;;;;5004373;28;20455;-75
2022/12/23 09:44:10;;;;;;;35.47;22.10;;;10.20;94.90;;;;;;5005685;28;20053;-76
2022/12/23 09:46:42;;;;;;;32.65;19.67;;;10.20;95.00;;;;;;4997029;28;20034;-76
2022/12/23 09:49:14;;;;;;;26.10;18.58;;;10.20;95.00;;;;;;4993282;28;20534;-76
2022/12/23 09:51:39;;;;;;;25.48;17.10;;;10.20;95.00;;;;;;4996540;28;20107;-77
2022/12/23 09:54:17;;;;;;;25.27;17.73;;;10.10;95.00;;;;;;4991824;28;20091;-76
2022/12/23 09:56:46;;;;;;;28.67;17.65;;;10.20;95.20;;;;;;4996690;28;20046;-75
2022/12/23 09:59:24;;;;;;;23.65;14.80;;;10.20;95.20;;;;;;4988181;28;20246;-76
2022/12/23 10:02:35;;;;;;;23.08;14.68;;;10.20;95.10;;;;;;4999226;28;20033;-75
2022/12/23 10:05:13;;;;;;;22.73;14.38;;;10.30;95.10;;;;;;4991621;28;20461;-76
2022/12/23 10:07:53;;;;;;;21.58;13.60;;;10.20;95.10;;;;;;4999216;28;20416;-76
2022/12/23 10:11:03;;;;;;;22.10;14.25;;;10.30;95.10;;;;;;4994825;28;20025;-76
2022/12/23 10:13:38;;;;;;;18.15;12.00;;;10.30;95.20;;;;;;4981159;28;20129;-76
2022/12/23 10:16:08;;;;;;;;;;;10.40;95.30;;;;;;4994048;28;20057;-75
2022/12/23 10:18:56;;;;;;;21.70;14.23;;;10.40;95.30;;;;;;4997053;28;19925;-75
2022/12/23 10:21:33;;;;;;;18.55;11.80;;;10.50;95.30;;;;;;4994246;28;20049;-75
2022/12/23 10:24:04;;;;;;;22.85;18.67;;;10.50;95.30;;;;;;4994406;28;20473;-75
2022/12/23 10:26:55;;;;;;;17.65;13.88;;;10.50;95.20;;;;;;4995319;28;20041;-76
2022/12/23 10:29:28;;;;;;;16.80;11.57;;;10.60;95.30;;;;;;4992656;28;20037;-76
2022/12/23 10:32:13;;;;;;;15.10;11.40;;;10.60;95.20;;;;;;4989535;28;20113;-76
2022/12/23 10:34:57;;;;;;;18.70;12.93;;;10.60;95.10;;;;;;4992412;28;20064;-76
2022/12/23 10:37:42;;;;;;;15.38;11.10;;;10.60;95.10;;;;;;4990849;28;20175;-74
2022/12/23 10:40:36;;;;;;;16.63;11.48;;;10.60;95.00;;;;;;4992145;28;20421;-75
2022/12/23 10:43:09;;;;;;;16.60;10.38;;;10.60;95.10;;;;;;4989633;28;20529;-74
2022/12/23 10:46:12;;;;;;;17.20;11.75;;;10.60;95.10;;;;;;4993491;28;20038;-75
2022/12/23 10:48:53;;;;;;;16.67;10.73;;;10.60;95.10;;;;;;4997554;28;20369;-75
2022/12/23 10:51:27;;;;;;;14.98;9.38;;;10.60;95.20;;;;;;4996300;28;20057;-74
2022/12/23 10:54:00;;;;;;;13.82;9.23;;;10.60;95.20;;;;;;4997284;28;20371;-74
2022/12/23 10:56:29;;;;;;;11.43;8.18;;;10.60;95.30;;;;;;4995001;28;20034;-74
2022/12/23 10:58:57;;;;;;;11.57;7.45;;;10.60;95.40;;;;;;4997339;28;20561;-74
2022/12/23 11:01:23;;;;;;;10.35;7.18;;;10.60;95.40;;;;;;4996588;28;20037;-73
2022/12/23 11:04:13;;;;;;;11.70;7.13;;;10.60;95.40;;;;;;4998942;28;20061;-74
2022/12/23 11:06:43;;;;;;;10.48;6.50;;;10.70;95.40;;;;;;4989406;28;20030;-74
2022/12/23 11:09:18;;;;;;;11.25;6.88;;;10.70;95.40;;;;;;5000405;28;20164;-74
2022/12/23 11:12:01;;;;;;;10.50;6.38;;;10.70;95.40;;;;;;4998239;28;20271;-75
2022/12/23 11:14:39;;;;;;;8.85;6.10;;;10.70;95.40;;;;;;4996539;28;20042;-74
2022/12/23 11:17:17;;;;;;;7.80;4.70;;;10.70;95.50;;;;;;4996142;28;20061;-73
2022/12/23 11:19:43;;;;;;;7.80;4.75;;;10.80;95.50;;;;;;4992465;28;20279;-74
2022/12/23 11:22:21;;;;;;;7.30;4.68;;;10.80;95.60;;;;;;4992840;28;20045;-75
2022/12/23 11:24:47;;;;;;;8.50;5.90;;;11.00;95.70;;;;;;4996903;28;20029;-75
2022/12/23 11:27:17;;;;;;;10.43;8.23;;;11.00;95.80;;;;;;4997190;28;20045;-75
2022/12/23 11:29:50;;;;;;;12.23;6.75;;;11.10;95.80;;;;;;4999919;28;20064;-74
2022/12/23 11:32:25;;;;;;;9.50;6.75;;;11.10;95.90;;;;;;4993321;28;20464;-75
2022/12/23 11:34:52;;;;;;;11.00;8.10;;;11.20;95.90;;;;;;4995478;28;20046;-76
2022/12/23 11:37:28;;;;;;;11.95;9.23;;;11.40;96.00;;;;;;5003289;28;20084;-75
2022/12/23 11:39:54;;;;;;;13.25;9.50;;;11.40;96.00;;;;;;4995232;28;20041;-75
2022/12/23 11:42:26;;;;;;;11.70;9.20;;;11.60;96.10;;;;;;4993523;28;20486;-75
2022/12/23 11:44:53;;;;;;;13.65;9.52;;;11.60;96.00;;;;;;4993093;28;20038;-75
2022/12/23 11:47:21;;;;;;;13.25;9.70;;;11.70;96.00;;;;;;4996101;28;20042;-76
2022/12/23 11:49:53;;;;;;;12.90;9.52;;;11.70;96.00;;;;;;4999495;28;20047;-77
2022/12/23 11:52:24;;;;;;;14.88;9.88;;;11.80;96.00;;;;;;4998253;28;20046;-76
2022/12/23 11:54:59;;;;;;;13.75;10.07;;;11.80;96.10;;;;;;4995074;28;20065;-75
2022/12/23 11:57:30;;;;;;;13.05;10.23;;;11.90;96.10;;;;;;4996353;28;20113;-76
2022/12/23 12:00:01;;;;;;;11.82;9.20;;;11.90;96.10;;;;;;5000238;28;20041;-76
2022/12/23 12:02:35;;;;;;;15.02;10.52;;;11.90;96.00;;;;;;4999041;28;20030;-76
2022/12/23 12:05:24;;;;;;;12.45;9.02;;;12.00;96.10;;;;;;5001677;28;20034;-76
2022/12/23 12:07:51;;;;;;;11.98;8.90;;;12.10;96.20;;;;;;4993584;28;20045;-75
2022/12/23 12:10:21;;;;;;;11.93;8.43;;;12.20;96.20;;;;;;4996321;28;20038;-75
2022/12/23 12:12:55;;;;;;;11.32;8.43;;;12.30;96.20;;;;;;4993761;28;20120;-75
2022/12/23 12:15:29;;;;;;;11.90;7.97;;;12.40;96.20;;;;;;4990647;28;20042;-77
2022/12/23 12:17:56;;;;;;;12.20;7.68;;;12.40;96.20;;;;;;4993324;28;20050;-76
2022/12/23 12:20:33;;;;;;;11.43;7.50;;;12.50;96.10;;;;;;4992000;28;20069;-75
2022/12/23 12:23:02;;;;;;;11.50;7.43;;;12.50;96.10;;;;;;4992318;28;20498;-76
2022/12/23 12:25:43;;;;;;;10.43;7.03;;;12.60;96.20;;;;;;4993935;28;20092;-76
2022/12/23 12:28:33;;;;;;;10.18;6.88;;;12.60;96.20;;;;;;4991531;28;20565;-76
2022/12/23 12:31:13;;;;;;;8.07;5.40;;;12.70;96.20;;;;;;4990838;28;20053;-75
2022/12/23 12:33:47;;;;;;;8.95;5.13;;;12.80;96.30;;;;;;4996386;28;20037;-76
2022/12/23 12:36:23;;;;;;;10.57;5.15;;;12.80;96.20;;;;;;4994076;28;20376;-76
2022/12/23 12:38:52;;;;;;;7.88;4.40;;;12.90;96.20;;;;;;4993246;28;20383;-76
2022/12/23 12:41:27;;;;;;;9.40;4.68;;;13.00;96.10;;;;;;4993115;28;20458;-75
2022/12/23 12:43:59;;;;;;;7.70;3.92;;;13.10;95.90;;;;;;4993969;28;20046;-75
2022/12/23 12:46:50;;;;;;;8.38;4.38;;;13.10;95.80;;;;;;4993997;28;20044;-75
2022/12/23 12:49:40;;;;;;;6.97;3.88;;;13.20;95.60;;;;;;4986675;28;20730;-75
2022/12/23 12:52:14;;;;;;;6.68;3.67;;;13.30;95.40;;;;;;4994389;28;20425;-76
2022/12/23 12:54:46;;;;;;;6.65;3.60;;;13.50;95.40;;;;;;4993363;28;20430;-76
2022/12/23 12:57:15;;;;;;;6.53;3.60;;;13.50;95.10;;;;;;4985257;28;20022;-76
2022/12/23 12:59:42;;;;;;;6.68;3.42;;;13.60;94.90;;;;;;4992580;28;20046;-76
2022/12/23 13:02:29;;;;;;;6.75;3.17;;;13.60;94.80;;;;;;4993318;28;20485;-76
2022/12/23 13:05:25;;;;;;;7.72;3.17;;;13.60;94.70;;;;;;4993057;28;20541;-77
2022/12/23 13:07:53;;;;;;;6.80;2.90;;;13.60;94.60;;;;;;4994399;28;20041;-77
2022/12/23 13:10:38;;;;;;;7.65;2.97;;;13.60;94.30;;;;;;4992942;28;20034;-77
2022/12/23 13:13:21;;;;;;;7.20;2.75;;;13.60;94.30;;;;;;4993605;28;20061;-76
2022/12/23 13:15:58;;;;;;;5.25;2.22;;;13.60;93.90;;;;;;4994969;28;20045;-75
2022/12/23 13:18:29;;;;;;;3.97;2.47;;;13.60;93.90;;;;;;4994459;28;20444;-76
2022/12/23 13:21:06;;;;;;;6.25;3.00;;;13.60;93.80;;;;;;5002838;28;20076;-77
2022/12/23 13:24:02;;;;;;;5.30;2.33;;;13.60;93.70;;;;;;4999492;28;20460;-76
2022/12/23 13:26:30;;;;;;;;;;;13.60;93.70;;;;;;5001708;28;20034;-77